createdAt,value
2023-02-25T00:01:57.664Z,61.00
2023-02-25T00:04:32.593Z,58.25
2023-02-25T00:07:01.495Z,62.67
2023-02-25T00:09:30.913Z,60.00
2023-02-25T00:11:59.136Z,63.00
2023-02-25T00:14:29.883Z,57.75
2023-02-25T00:16:58.223Z,59.50
2023-02-25T00:19:27.077Z,58.00
2023-02-25T00:21:55.213Z,62.00
2023-02-25T00:24:24.200Z,59.50
2023-02-25T00:26:52.326Z,58.50
2023-02-25T00:29:22.347Z,57.00
2023-02-25T00:31:50.896Z,58.00
2023-02-25T00:34:19.523Z,59.50
2023-02-25T00:36:47.578Z,61.33
2023-02-25T00:39:16.417Z,54.67
2023-02-25T00:41:44.606Z,59.00
2023-02-25T00:44:13.300Z,63.00
2023-02-25T00:46:41.556Z,57.75
2023-02-25T00:49:12.118Z,60.50
2023-02-25T00:51:41.512Z,58.00
2023-02-25T00:54:10.011Z,62.50
2023-02-25T00:56:38.168Z,61.50
2023-02-25T00:59:06.762Z,62.50
2023-02-25T01:01:34.987Z,64.50
2023-02-25T01:04:03.507Z,57.25
2023-02-25T01:06:34.965Z,61.67
2023-02-25T01:09:05.615Z,60.00
2023-02-25T01:11:35.984Z,59.25
2023-02-25T01:14:07.659Z,58.00
2023-02-25T01:16:36.265Z,61.50
2023-02-25T01:19:10.186Z,60.00
2023-02-25T01:21:41.572Z,60.75
2023-02-25T01:24:17.796Z,59.25
2023-02-25T01:27:05.005Z,61.00
2023-02-25T01:29:39.546Z,63.25
2023-02-25T01:32:11.182Z,62.00
2023-02-25T01:34:40.230Z,57.67
2023-02-25T01:37:09.918Z,58.33
2023-02-25T01:39:41.584Z,60.50
2023-02-25T01:42:15.140Z,64.00
2023-02-25T01:45:15.346Z,58.25
2023-02-25T01:47:46.710Z,59.75
2023-02-25T01:50:15.372Z,61.50
2023-02-25T01:52:45.328Z,59.00
2023-02-25T01:55:15.166Z,58.67
2023-02-25T01:57:43.655Z,57.00
2023-02-25T02:00:16.353Z,62.00
2023-02-25T02:02:45.733Z,61.00
2023-02-25T02:05:15.377Z,62.25
2023-02-25T02:07:43.701Z,57.75
2023-02-25T02:10:12.971Z,57.00
2023-02-25T02:12:44.659Z,59.00
2023-02-25T02:15:14.822Z,60.75
2023-02-25T02:18:00.690Z,59.00
2023-02-25T02:20:37.169Z,59.00
2023-02-25T02:23:17.096Z,58.75
2023-02-25T02:26:16.036Z,62.50
2023-02-25T02:28:59.465Z,58.75
2023-02-25T02:31:53.050Z,58.25
2023-02-25T02:34:57.351Z,54.50
2023-02-25T02:37:43.348Z,59.50
2023-02-25T02:40:20.339Z,58.75
2023-02-25T02:42:56.524Z,61.00
2023-02-25T02:45:41.741Z,66.00
2023-02-25T02:48:16.039Z,61.25
2023-02-25T02:51:00.967Z,63.25
2023-02-25T02:53:37.382Z,63.75
2023-02-25T02:56:08.383Z,60.75
2023-02-25T02:58:54.136Z,60.25
2023-02-25T03:01:27.653Z,65.00
2023-02-25T03:04:00.848Z,63.50
2023-02-25T03:06:36.325Z,61.50
2023-02-25T03:09:19.271Z,65.33
2023-02-25T03:11:47.506Z,64.50
2023-02-25T03:14:16.583Z,63.75
2023-02-25T03:16:53.604Z,66.75
2023-02-25T03:19:45.799Z,64.00
2023-02-25T03:22:17.392Z,61.00
2023-02-25T03:24:51.154Z,58.75
2023-02-25T03:27:34.711Z,63.00
2023-02-25T03:30:17.717Z,60.50
2023-02-25T03:32:50.040Z,66.50
2023-02-25T03:35:21.002Z,65.25
2023-02-25T03:37:51.516Z,61.25
2023-02-25T03:40:21.140Z,63.00
2023-02-25T03:42:59.769Z,63.33
2023-02-25T03:45:29.929Z,60.75
2023-02-25T03:47:58.672Z,58.67
2023-02-25T03:50:35.562Z,61.33
2023-02-25T03:53:07.446Z,57.75
2023-02-25T03:56:09.340Z,59.75
2023-02-25T03:58:41.333Z,54.50
2023-02-25T04:01:17.051Z,60.75
2023-02-25T04:03:45.537Z,57.00
2023-02-25T04:06:15.311Z,57.75
2023-02-25T04:08:44.732Z,56.33
2023-02-25T04:11:13.044Z,57.67
2023-02-25T04:13:43.411Z,56.00
2023-02-25T04:16:11.864Z,58.00
2023-02-25T04:18:40.853Z,58.67
2023-02-25T04:21:09.963Z,58.25
2023-02-25T04:23:37.985Z,59.00
2023-02-25T04:26:06.723Z,59.50
2023-02-25T04:28:34.825Z,59.33
2023-02-25T04:31:03.433Z,52.50
2023-02-25T04:33:31.643Z,60.50
2023-02-25T04:36:00.014Z,64.00
2023-02-25T04:38:28.034Z,56.00
2023-02-25T04:40:56.655Z,53.00
2023-02-25T04:43:24.687Z,61.50
2023-02-25T04:45:54.919Z,57.25
2023-02-25T04:48:24.705Z,56.33
2023-02-25T04:50:53.059Z,56.00
2023-02-25T04:53:21.223Z,54.75
2023-02-25T04:55:49.856Z,54.00
2023-02-25T04:58:17.845Z,53.75
2023-02-25T05:00:47.874Z,55.25
2023-02-25T05:03:15.995Z,55.50
2023-02-25T05:05:44.599Z,56.00
2023-02-25T05:08:12.728Z,50.50
2023-02-25T05:10:41.076Z,54.75
2023-02-25T05:13:09.118Z,53.25
2023-02-25T05:15:37.507Z,51.00
2023-02-25T05:18:05.563Z,51.67
2023-02-25T05:20:34.112Z,50.33
2023-02-25T05:23:02.183Z,53.00
2023-02-25T05:25:30.411Z,50.00
2023-02-25T05:27:58.513Z,50.75
2023-02-25T05:30:26.846Z,49.75
2023-02-25T05:32:55.026Z,49.67
2023-02-25T05:35:23.472Z,50.75
2023-02-25T05:37:51.637Z,52.50
2023-02-25T05:40:20.430Z,49.33
2023-02-25T05:42:49.757Z,48.00
2023-02-25T05:45:18.272Z,48.50
2023-02-25T05:47:46.207Z,46.00
2023-02-25T05:50:14.597Z,47.50
2023-02-25T05:52:42.727Z,48.75
2023-02-25T05:55:11.401Z,49.00
2023-02-25T05:57:39.425Z,48.00
2023-02-25T06:00:10.138Z,46.50
2023-02-25T06:02:42.132Z,44.75
2023-02-25T06:05:10.619Z,48.75
2023-02-25T06:07:38.640Z,47.50
2023-02-25T06:10:07.545Z,48.33
2023-02-25T06:12:36.983Z,45.33
2023-02-25T06:15:05.693Z,46.50
2023-02-25T06:17:33.743Z,45.75
2023-02-25T06:20:02.083Z,46.50
2023-02-25T06:22:30.072Z,48.00
2023-02-25T06:24:58.353Z,47.00
2023-02-25T06:27:26.372Z,47.25
2023-02-25T06:29:54.742Z,43.25
2023-02-25T06:32:22.805Z,45.67
2023-02-25T06:34:52.042Z,43.25
2023-02-25T06:37:20.112Z,45.50
2023-02-25T06:39:48.485Z,45.50
2023-02-25T06:42:16.574Z,46.50
2023-02-25T06:44:44.892Z,43.25
2023-02-25T06:47:13.003Z,46.33
2023-02-25T06:49:41.679Z,44.25
2023-02-25T06:52:09.774Z,44.00
2023-02-25T06:54:38.024Z,42.67
2023-02-25T06:57:06.009Z,41.00
2023-02-25T06:59:36.024Z,41.25
2023-02-25T07:02:04.428Z,42.50
2023-02-25T07:04:32.753Z,41.50
2023-02-25T07:07:00.810Z,44.25
2023-02-25T07:09:29.880Z,43.50
2023-02-25T07:11:58.588Z,42.50
2023-02-25T07:14:27.120Z,40.75
2023-02-25T07:16:55.779Z,42.00
2023-02-25T07:19:24.165Z,43.33
2023-02-25T07:21:52.276Z,41.25
2023-02-25T07:24:20.934Z,43.50
2023-02-25T07:26:49.434Z,43.25
2023-02-25T07:29:17.748Z,42.33
2023-02-25T07:31:45.977Z,42.50
2023-02-25T07:34:14.876Z,40.50
2023-02-25T07:36:42.928Z,44.00
2023-02-25T07:39:11.856Z,42.00
2023-02-25T07:41:40.251Z,38.75
2023-02-25T07:44:12.494Z,40.50
2023-02-25T07:46:41.876Z,44.00
2023-02-25T07:49:10.221Z,44.25
2023-02-25T07:51:38.282Z,43.00
2023-02-25T07:54:06.552Z,41.67
2023-02-25T07:56:34.534Z,42.25
2023-02-25T07:59:02.992Z,43.00
2023-02-25T08:01:33.301Z,44.33
2023-02-25T08:04:06.677Z,42.50
2023-02-25T08:06:35.472Z,40.00
2023-02-25T08:09:08.732Z,42.00
2023-02-25T08:11:37.408Z,39.00
2023-02-25T08:14:06.359Z,43.75
2023-02-25T08:16:35.075Z,44.00
2023-02-25T08:19:05.909Z,41.67
2023-02-25T08:21:34.471Z,40.00
2023-02-25T08:24:03.183Z,40.75
2023-02-25T08:26:31.570Z,45.50
2023-02-25T08:29:00.854Z,41.00
2023-02-25T08:31:29.496Z,42.67
2023-02-25T08:33:59.691Z,40.50
2023-02-25T08:36:30.760Z,40.00
2023-02-25T08:39:00.091Z,38.00
2023-02-25T08:41:29.167Z,40.00
2023-02-25T08:44:00.706Z,42.25
2023-02-25T08:46:30.948Z,38.00
2023-02-25T08:49:00.130Z,43.75
2023-02-25T08:51:34.507Z,41.50
2023-02-25T08:54:08.001Z,38.75
2023-02-25T08:56:37.509Z,39.00
2023-02-25T08:59:06.457Z,39.33
2023-02-25T09:01:46.831Z,38.00
2023-02-25T09:04:20.024Z,40.50
2023-02-25T09:06:48.499Z,43.00
2023-02-25T09:09:18.621Z,37.67
2023-02-25T09:11:47.930Z,40.00
2023-02-25T09:14:17.659Z,38.50
2023-02-25T09:16:45.958Z,39.75
2023-02-25T09:19:17.475Z,39.33
2023-02-25T09:21:49.538Z,39.00
2023-02-25T09:24:18.602Z,38.50
2023-02-25T09:26:47.716Z,36.33
2023-02-25T09:29:16.941Z,37.00
2023-02-25T09:31:45.384Z,37.75
2023-02-25T09:34:14.890Z,35.00
2023-02-25T09:36:43.179Z,34.00
2023-02-25T09:39:13.101Z,37.75
2023-02-25T09:42:12.075Z,39.00
2023-02-25T09:44:52.460Z,37.75
2023-02-25T09:47:50.666Z,36.00
2023-02-25T09:50:39.926Z,38.25
2023-02-25T09:53:19.799Z,37.33
2023-02-25T09:55:51.859Z,38.00
2023-02-25T09:58:57.569Z,37.50
2023-02-25T10:01:34.842Z,36.50
2023-02-25T10:04:11.009Z,37.50
2023-02-25T10:06:44.479Z,34.75
2023-02-25T10:09:31.630Z,33.25
2023-02-25T10:12:21.055Z,37.50
2023-02-25T10:15:01.176Z,35.50
2023-02-25T10:18:00.401Z,35.25
2023-02-25T10:20:50.249Z,40.75
2023-02-25T10:23:39.462Z,46.50
2023-02-25T10:26:18.619Z,35.50
2023-02-25T10:28:53.632Z,35.50
2023-02-25T10:31:24.202Z,39.50
2023-02-25T10:33:54.298Z,40.50
2023-02-25T10:36:32.577Z,40.25
2023-02-25T10:39:01.269Z,40.00
2023-02-25T10:41:30.691Z,39.00
2023-02-25T10:43:59.243Z,38.75
2023-02-25T10:46:35.223Z,37.75
2023-02-25T10:49:16.685Z,38.75
2023-02-25T10:52:17.797Z,39.75
2023-02-25T10:54:48.357Z,37.67
2023-02-25T10:57:19.291Z,38.25
2023-02-25T10:59:49.530Z,38.00
2023-02-25T11:02:31.807Z,36.50
2023-02-25T11:05:00.532Z,36.50
2023-02-25T11:07:31.458Z,33.50
2023-02-25T11:10:09.470Z,34.00
2023-02-25T11:12:42.041Z,33.00
2023-02-25T11:15:41.740Z,31.00
2023-02-25T11:18:28.385Z,31.25
2023-02-25T11:21:00.008Z,35.00
2023-02-25T11:23:46.806Z,32.75
2023-02-25T11:26:35.152Z,31.00
2023-02-25T11:29:12.231Z,27.00
2023-02-25T11:31:42.808Z,29.75
2023-02-25T11:34:37.770Z,29.00
2023-02-25T11:37:37.063Z,29.75
2023-02-25T11:40:21.792Z,25.50
2023-02-25T11:43:05.659Z,27.00
2023-02-25T11:45:36.507Z,25.50
2023-02-25T11:48:15.656Z,27.50
2023-02-25T11:51:02.301Z,25.00
2023-02-25T11:54:03.427Z,24.75
2023-02-25T11:56:36.170Z,28.25
2023-02-25T11:59:26.178Z,25.67
2023-02-25T12:02:25.577Z,28.25
2023-02-25T12:05:09.506Z,27.75
2023-02-25T12:07:59.952Z,27.00
2023-02-25T12:10:53.838Z,26.25
2023-02-25T12:13:33.437Z,27.00
2023-02-25T12:16:38.541Z,26.75
2023-02-25T12:19:37.470Z,24.50
2023-02-25T12:22:38.597Z,27.00
2023-02-25T12:25:44.053Z,25.50
2023-02-25T12:28:41.842Z,27.25
2023-02-25T12:31:22.359Z,27.25
2023-02-25T12:34:09.964Z,24.75
2023-02-25T12:37:40.812Z,27.00
2023-02-25T12:40:46.752Z,25.25
2023-02-25T12:43:34.932Z,24.50
2023-02-25T12:46:22.418Z,24.00
2023-02-25T12:49:24.100Z,27.00
2023-02-25T12:52:27.933Z,24.67
2023-02-25T12:55:14.294Z,23.25
2023-02-25T12:58:03.970Z,22.50
2023-02-25T13:00:51.434Z,22.75
2023-02-25T13:03:33.270Z,21.75
2023-02-25T13:06:24.353Z,21.00
2023-02-25T13:09:02.190Z,23.00
2023-02-25T13:12:09.944Z,26.75
2023-02-25T13:14:33.775Z,24.50
2023-02-25T13:17:20.076Z,25.00
2023-02-25T13:20:25.922Z,22.75
2023-02-25T13:23:38.907Z,25.50
2023-02-25T13:26:32.324Z,26.00
2023-02-25T13:29:14.912Z,27.25
2023-02-25T13:32:12.375Z,25.50
2023-02-25T13:34:47.667Z,26.25
2023-02-25T13:37:41.689Z,26.00
2023-02-25T13:40:28.327Z,26.00
2023-02-25T13:43:25.813Z,26.00
2023-02-25T13:46:06.494Z,29.00
2023-02-25T13:48:55.880Z,27.33
2023-02-25T13:52:21.085Z,26.50
2023-02-25T13:54:58.443Z,26.00
2023-02-25T13:57:40.969Z,25.00
2023-02-25T14:00:09.638Z,28.67
2023-02-25T14:03:14.294Z,26.00
2023-02-25T14:06:16.732Z,28.25
2023-02-25T14:09:23.604Z,27.50
2023-02-25T14:12:12.344Z,28.50
2023-02-25T14:15:00.947Z,28.25
2023-02-25T14:17:40.880Z,25.75
2023-02-25T14:20:37.273Z,27.50
2023-02-25T14:23:30.664Z,28.25
2023-02-25T14:26:27.835Z,26.50
2023-02-25T14:29:09.470Z,26.00
2023-02-25T14:32:04.744Z,23.00
2023-02-25T14:35:06.714Z,25.50
2023-02-25T14:38:09.462Z,25.67
2023-02-25T14:40:56.730Z,26.00
2023-02-25T14:43:35.666Z,23.25
2023-02-25T14:46:10.070Z,25.00
2023-02-25T14:48:43.600Z,24.67
2023-02-25T14:51:53.826Z,25.00
2023-02-25T14:54:40.659Z,25.75
2023-02-25T14:57:30.514Z,23.75
2023-02-25T15:00:42.732Z,26.33
2023-02-25T15:03:35.849Z,24.33
2023-02-25T15:06:20.200Z,21.50
2023-02-25T15:08:59.085Z,23.75
2023-02-25T15:12:04.611Z,24.00
2023-02-25T15:14:41.563Z,25.00
2023-02-25T15:17:37.547Z,22.00
2023-02-25T15:20:10.258Z,24.33
2023-02-25T15:22:39.264Z,24.50
2023-02-25T15:25:23.811Z,25.75
2023-02-25T15:27:56.804Z,24.67
2023-02-25T15:30:27.018Z,25.00
2023-02-25T15:33:27.473Z,27.50
2023-02-25T15:35:59.045Z,26.50
2023-02-25T15:38:54.254Z,24.25
2023-02-25T15:41:38.422Z,24.00
2023-02-25T15:44:09.247Z,25.00
2023-02-25T15:46:41.442Z,25.25
2023-02-25T15:49:28.451Z,23.33
2023-02-25T15:52:00.137Z,21.75
2023-02-25T15:54:28.357Z,24.50
2023-02-25T15:57:01.643Z,22.75
2023-02-25T15:59:55.890Z,22.00
2023-02-25T16:02:34.951Z,23.00
2023-02-25T16:05:38.494Z,22.25
2023-02-25T16:08:19.075Z,26.00
2023-02-25T16:10:50.115Z,22.75
2023-02-25T16:13:31.659Z,21.67
2023-02-25T16:16:02.257Z,23.25
2023-02-25T16:18:37.725Z,21.50
2023-02-25T16:21:12.118Z,22.75
2023-02-25T16:23:41.242Z,22.50
2023-02-25T16:26:11.759Z,24.33
2023-02-25T16:28:49.925Z,24.25
2023-02-25T16:31:30.119Z,24.75
2023-02-25T16:34:06.834Z,23.50
2023-02-25T16:36:50.039Z,24.75
2023-02-25T16:39:27.088Z,24.25
2023-02-25T16:41:55.695Z,26.00
2023-02-25T16:44:32.144Z,25.25
2023-02-25T16:47:00.399Z,24.50
2023-02-25T16:49:40.800Z,26.25
2023-02-25T16:52:35.788Z,26.75
2023-02-25T16:55:10.824Z,28.00
2023-02-25T16:57:40.243Z,26.00
2023-02-25T17:00:19.473Z,27.50
2023-02-25T17:02:49.981Z,28.00
2023-02-25T17:05:29.276Z,27.25
2023-02-25T17:08:00.629Z,27.33
2023-02-25T17:10:47.569Z,28.67
2023-02-25T17:13:36.980Z,29.00
2023-02-25T17:16:06.845Z,26.00
2023-02-25T17:18:54.170Z,28.00
2023-02-25T17:21:25.605Z,26.00
2023-02-25T17:23:54.128Z,26.50
2023-02-25T17:26:23.232Z,29.50
2023-02-25T17:28:55.488Z,27.00
2023-02-25T17:31:27.181Z,27.75
2023-02-25T17:33:58.858Z,27.75
2023-02-25T17:36:36.055Z,28.00
2023-02-25T17:39:16.732Z,26.00
2023-02-25T17:41:45.615Z,26.50
2023-02-25T17:44:36.502Z,27.00
2023-02-25T17:47:07.409Z,28.00
2023-02-25T17:49:36.435Z,26.25
2023-02-25T17:52:27.705Z,27.00
2023-02-25T17:55:08.360Z,28.00
2023-02-25T17:57:42.208Z,28.50
2023-02-25T18:00:26.311Z,27.75
2023-02-25T18:03:21.422Z,30.75
2023-02-25T18:05:59.219Z,31.00
2023-02-25T18:08:29.945Z,30.75
2023-02-25T18:11:04.570Z,33.00
2023-02-25T18:13:37.451Z,35.75
2023-02-25T18:16:24.958Z,35.50
2023-02-25T18:18:54.711Z,34.00
2023-02-25T18:21:23.453Z,40.00
2023-02-25T18:23:52.314Z,38.00
2023-02-25T18:26:26.453Z,33.33
2023-02-25T18:28:57.900Z,38.00
2023-02-25T18:31:26.258Z,39.00
2023-02-25T18:33:55.209Z,37.50
2023-02-25T18:36:27.042Z,36.67
2023-02-25T18:38:59.025Z,37.25
2023-02-25T18:41:27.131Z,36.00
2023-02-25T18:43:55.545Z,35.67
2023-02-25T18:46:23.994Z,38.50
2023-02-25T18:48:52.683Z,43.33
2023-02-25T18:51:20.779Z,40.25
2023-02-25T18:53:49.234Z,36.75
2023-02-25T18:56:17.552Z,37.50
2023-02-25T18:58:46.080Z,41.75
2023-02-25T19:01:24.510Z,39.00
2023-02-25T19:03:54.150Z,37.25
2023-02-25T19:06:22.457Z,40.50
2023-02-25T19:08:50.952Z,41.75
2023-02-25T19:11:27.458Z,42.25
2023-02-25T19:13:55.767Z,42.00
2023-02-25T19:16:24.372Z,45.00
2023-02-25T19:18:52.883Z,42.75
2023-02-25T19:21:22.003Z,43.00
2023-02-25T19:23:54.090Z,40.00
2023-02-25T19:26:22.528Z,41.00
2023-02-25T19:28:51.106Z,43.00
2023-02-25T19:31:19.438Z,39.25
2023-02-25T19:33:47.885Z,40.33
2023-02-25T19:36:16.048Z,41.75
2023-02-25T19:38:44.418Z,46.50
2023-02-25T19:41:14.466Z,39.75
2023-02-25T19:43:43.331Z,44.75
2023-02-25T19:46:11.540Z,41.75
2023-02-25T19:48:40.026Z,40.50
2023-02-25T19:51:09.287Z,41.50
2023-02-25T19:53:37.760Z,44.00
2023-02-25T19:56:08.049Z,42.00
2023-02-25T19:58:36.561Z,44.25
2023-02-25T20:01:08.954Z,45.00
2023-02-25T20:03:37.520Z,44.00
2023-02-25T20:06:12.930Z,41.00
2023-02-25T20:08:41.907Z,46.50
2023-02-25T20:11:10.565Z,44.00
2023-02-25T20:13:39.245Z,44.00
2023-02-25T20:16:07.753Z,40.33
2023-02-25T20:18:36.045Z,43.00
2023-02-25T20:21:05.062Z,44.50
2023-02-25T20:23:33.757Z,46.00
2023-02-25T20:26:06.839Z,44.50
2023-02-25T20:28:36.100Z,45.50
2023-02-25T20:31:11.142Z,47.00
2023-02-25T20:33:40.372Z,47.50
2023-02-25T20:36:52.818Z,46.25
2023-02-25T20:39:23.761Z,48.75
2023-02-25T20:41:52.070Z,46.25
2023-02-25T20:44:21.161Z,48.25
2023-02-25T20:46:49.432Z,46.00
2023-02-25T20:49:19.196Z,45.25
2023-02-25T20:51:47.860Z,44.25
2023-02-25T20:54:18.464Z,45.50
2023-02-25T20:56:47.646Z,48.25
2023-02-25T20:59:17.522Z,46.50
2023-02-25T21:01:45.505Z,48.00
2023-02-25T21:04:14.147Z,46.00
2023-02-25T21:06:42.129Z,51.00
2023-02-25T21:09:10.494Z,49.00
2023-02-25T21:11:38.529Z,49.25
2023-02-25T21:14:10.480Z,47.33
2023-02-25T21:16:57.265Z,52.75
2023-02-25T21:19:28.246Z,51.50
2023-02-25T21:21:56.507Z,53.00
2023-02-25T21:24:27.414Z,50.00
2023-02-25T21:26:55.428Z,52.00
2023-02-25T21:29:23.786Z,48.00
2023-02-25T21:31:51.980Z,51.50
2023-02-25T21:34:20.957Z,53.50
2023-02-25T21:36:49.089Z,47.75
2023-02-25T21:39:17.562Z,49.00
2023-02-25T21:41:45.958Z,51.25
2023-02-25T21:44:14.545Z,46.25
2023-02-25T21:46:42.919Z,48.00
2023-02-25T21:49:11.475Z,52.00
2023-02-25T21:51:40.687Z,54.00
2023-02-25T21:54:09.820Z,50.00
2023-02-25T21:56:38.203Z,48.50
2023-02-25T21:59:06.608Z,49.25
2023-02-25T22:01:37.356Z,53.50
2023-02-25T22:04:06.373Z,49.00
2023-02-25T22:06:34.521Z,52.00
2023-02-25T22:09:03.118Z,50.67
2023-02-25T22:11:33.633Z,52.00
2023-02-25T22:14:03.549Z,51.75
2023-02-25T22:16:31.680Z,52.25
2023-02-25T22:19:00.657Z,50.25
2023-02-25T22:21:30.429Z,53.25
2023-02-25T22:24:00.772Z,49.50
2023-02-25T22:26:31.782Z,52.33
2023-02-25T22:29:01.931Z,52.50
2023-02-25T22:31:30.401Z,52.67
2023-02-25T22:33:59.435Z,52.00
2023-02-25T22:36:28.015Z,56.33
2023-02-25T22:38:56.753Z,50.75
2023-02-25T22:41:30.336Z,52.50
2023-02-25T22:43:59.051Z,52.00
2023-02-25T22:46:32.715Z,55.50
2023-02-25T22:49:01.022Z,53.67
2023-02-25T22:51:37.230Z,53.00
2023-02-25T22:54:05.744Z,52.75
2023-02-25T22:56:33.877Z,54.25
2023-02-25T22:59:02.333Z,55.75
2023-02-25T23:01:30.496Z,53.33
2023-02-25T23:03:59.419Z,54.00
2023-02-25T23:06:42.161Z,52.50
2023-02-25T23:09:15.321Z,53.67
2023-02-25T23:11:44.259Z,54.50
2023-02-25T23:14:13.442Z,47.75
2023-02-25T23:16:43.513Z,50.33
2023-02-25T23:19:15.568Z,56.67
2023-02-25T23:21:44.113Z,49.50
2023-02-25T23:24:19.775Z,51.25
2023-02-25T23:26:50.810Z,52.00
2023-02-25T23:29:19.660Z,54.50
2023-02-25T23:31:48.515Z,51.75
2023-02-25T23:34:24.206Z,53.00
2023-02-25T23:36:56.126Z,52.00
2023-02-25T23:39:24.749Z,52.00
2023-02-25T23:41:52.807Z,53.25
2023-02-25T23:44:20.986Z,49.50
2023-02-25T23:46:49.198Z,51.50
2023-02-25T23:49:18.084Z,53.25
2023-02-25T23:51:47.921Z,52.25
2023-02-25T23:54:19.221Z,50.67
2023-02-25T23:56:48.270Z,55.00
2023-02-25T23:59:17.474Z,49.50
